createdAt,value
2022-12-17T00:02:04.654Z,100986.13
2022-12-17T00:07:18.324Z,101047.53
2022-12-17T00:12:39.424Z,101054.63
2022-12-17T00:17:51.805Z,100912.31
2022-12-17T00:23:23.613Z,100891.53
2022-12-17T00:28:56.040Z,100910.03
2022-12-17T00:34:23.965Z,100812.72
2022-12-17T00:39:40.184Z,100841.78
2022-12-17T00:44:54.796Z,101031.34
2022-12-17T00:50:04.945Z,100909.28
2022-12-17T00:55:15.548Z,101023.94
2022-12-17T01:00:28.257Z,100940.88
2022-12-17T01:05:43.506Z,101010.84
2022-12-17T01:11:12.414Z,100963.72
2022-12-17T01:16:41.723Z,100821.81
2022-12-17T01:22:08.402Z,100860.88
2022-12-17T01:27:58.273Z,100791.16
2022-12-17T01:33:27.224Z,100874.06
2022-12-17T01:38:49.425Z,100928.13
2022-12-17T01:44:00.425Z,100918.97
2022-12-17T01:49:23.303Z,100961.88
2022-12-17T01:54:38.127Z,100981.94
2022-12-17T01:59:56.279Z,100834.75
2022-12-17T02:05:07.056Z,100968.47
2022-12-17T02:10:56.472Z,100920.91
2022-12-17T02:16:32.596Z,100732.63
2022-12-17T02:21:56.154Z,100774.09
2022-12-17T02:27:42.743Z,100945.38
2022-12-17T02:38:52.756Z,100777.09
2022-12-17T02:44:06.206Z,100890.59
2022-12-17T02:49:17.491Z,100951.97
2022-12-17T02:54:41.076Z,100766.97
2022-12-17T02:59:53.775Z,100836.66
2022-12-17T03:05:27.519Z,100889.59
2022-12-17T03:10:39.590Z,100762.59
2022-12-17T03:16:12.302Z,100942.78
2022-12-17T03:21:49.772Z,100877.50
2022-12-17T03:27:14.824Z,100889.63
2022-12-17T03:46:43.270Z,100894.41
2022-12-17T04:04:46.195Z,100707.72
2022-12-17T04:09:59.512Z,100723.19
2022-12-17T04:15:15.428Z,100658.75
2022-12-17T04:20:35.834Z,100883.16
2022-12-17T04:25:46.615Z,100698.63
2022-12-17T04:31:01.990Z,100711.09
2022-12-17T04:36:22.646Z,100767.28
2022-12-17T04:41:38.958Z,100612.69
2022-12-17T04:47:23.831Z,100660.63
2022-12-17T04:52:37.895Z,100750.84
2022-12-17T04:57:51.775Z,100886.69
2022-12-17T05:03:07.128Z,100844.81
2022-12-17T05:08:24.503Z,100913.25
2022-12-17T05:13:36.813Z,100735.13
2022-12-17T05:18:56.025Z,100749.75
2022-12-17T05:24:19.790Z,100723.91
2022-12-17T05:29:31.498Z,100788.81
2022-12-17T05:34:45.078Z,100932.72
2022-12-17T05:39:55.748Z,100886.28
2022-12-17T05:45:09.000Z,100896.56
2022-12-17T05:50:21.728Z,100717.88
2022-12-17T05:55:38.555Z,100904.94
2022-12-17T06:00:51.846Z,100893.72
2022-12-17T06:06:04.296Z,100956.97
2022-12-17T06:11:18.086Z,100700.97
2022-12-17T06:16:42.058Z,100812.84
2022-12-17T06:21:54.689Z,100774.13
2022-12-17T06:27:05.713Z,100887.03
2022-12-17T06:32:21.919Z,100875.06
2022-12-17T06:37:34.064Z,100759.84
2022-12-17T06:42:44.842Z,100807.28
2022-12-17T06:47:56.300Z,100801.00
2022-12-17T06:53:17.491Z,100714.31
2022-12-17T06:58:31.480Z,100645.13
2022-12-17T07:03:42.557Z,100768.81
2022-12-17T07:08:54.354Z,100764.13
2022-12-17T07:14:04.788Z,100867.78
2022-12-17T07:19:15.422Z,100812.78
2022-12-17T07:24:29.068Z,100863.72
2022-12-17T07:29:39.851Z,100877.13
2022-12-17T07:34:50.739Z,100860.88
2022-12-17T07:40:04.996Z,100919.84
2022-12-17T07:45:15.757Z,100868.97
2022-12-17T07:50:26.618Z,100915.25
2022-12-17T07:55:50.062Z,100919.59
2022-12-17T08:01:00.872Z,101030.00
2022-12-17T08:06:11.428Z,101161.44
2022-12-17T08:11:23.597Z,101205.59
2022-12-17T08:16:34.207Z,101162.78
2022-12-17T08:21:47.683Z,101152.19
2022-12-17T08:26:59.811Z,101218.91
2022-12-17T08:32:12.022Z,101198.34
2022-12-17T08:37:23.070Z,101077.00
2022-12-17T08:42:35.360Z,101232.66
2022-12-17T08:47:46.555Z,101232.31
2022-12-17T08:52:58.758Z,101099.94
2022-12-17T08:58:31.807Z,101185.59
2022-12-17T09:03:42.819Z,101212.25
2022-12-17T09:09:00.680Z,101113.16
2022-12-17T09:14:20.191Z,101181.31
2022-12-17T09:19:31.655Z,101249.69
2022-12-17T09:24:42.204Z,101258.72
2022-12-17T09:29:56.558Z,101260.06
2022-12-17T09:35:07.857Z,101162.13
2022-12-17T09:40:20.028Z,101165.31
2022-12-17T09:45:37.117Z,101137.22
2022-12-17T09:50:50.536Z,101124.31
2022-12-17T09:56:06.246Z,101204.69
2022-12-17T10:01:21.214Z,101133.47
2022-12-17T10:06:36.725Z,101092.59
2022-12-17T10:11:49.552Z,101021.84
2022-12-17T10:17:08.544Z,101009.63
2022-12-17T10:22:27.733Z,101039.28
2022-12-17T10:27:38.844Z,101053.22
2022-12-17T10:32:50.637Z,101109.16
2022-12-17T10:38:01.218Z,101104.59
2022-12-17T10:43:11.741Z,101100.47
2022-12-17T10:48:35.648Z,101114.56
2022-12-17T10:53:46.077Z,101094.53
2022-12-17T10:59:03.628Z,101121.22
2022-12-17T11:04:17.217Z,101127.66
2022-12-17T11:09:37.119Z,101134.50
2022-12-17T11:14:49.132Z,101085.31
2022-12-17T11:20:07.370Z,101033.91
2022-12-17T11:25:24.891Z,101001.44
2022-12-17T11:30:36.426Z,101008.13
2022-12-17T11:35:57.845Z,101030.38
2022-12-17T11:41:13.333Z,101020.19
2022-12-17T11:46:35.692Z,101062.06
2022-12-17T11:51:52.168Z,101063.06
2022-12-17T11:57:08.946Z,101072.34
2022-12-17T12:02:34.493Z,101032.03
2022-12-17T12:07:56.781Z,101075.91
2022-12-17T12:13:19.640Z,101120.47
2022-12-17T12:18:42.115Z,101055.31
2022-12-17T12:24:10.989Z,101072.91
2022-12-17T12:29:34.186Z,101032.66
2022-12-17T12:34:49.491Z,101077.19
2022-12-17T12:40:10.259Z,101000.84
2022-12-17T12:45:25.716Z,101031.59
2022-12-17T12:50:41.402Z,101053.78
2022-12-17T12:55:57.612Z,101055.44
2022-12-17T13:01:13.337Z,100994.66
2022-12-17T13:06:07.038Z,101044.47
2022-12-17T13:11:12.132Z,101039.97
2022-12-17T13:16:27.022Z,101045.66
2022-12-17T13:21:29.692Z,101053.41
2022-12-17T13:26:32.102Z,101069.31
2022-12-17T13:31:28.889Z,101009.59
2022-12-17T13:36:30.793Z,101132.78
2022-12-17T13:41:31.238Z,101135.59
2022-12-17T13:46:25.357Z,101132.94
2022-12-17T13:51:20.656Z,101111.31
2022-12-17T13:56:13.984Z,101124.31
2022-12-17T14:01:15.166Z,101152.84
2022-12-17T14:06:11.583Z,101123.00
2022-12-17T14:11:22.384Z,101166.72
2022-12-17T14:16:18.052Z,101177.91
2022-12-17T14:21:12.008Z,101158.25
2022-12-17T14:26:05.335Z,101199.97
2022-12-17T14:36:23.884Z,101160.44
2022-12-17T14:41:34.621Z,101223.75
2022-12-17T14:46:28.154Z,101222.84
2022-12-17T14:51:29.110Z,101156.09
2022-12-17T14:56:24.789Z,101219.88
2022-12-17T15:01:18.503Z,101113.84
2022-12-17T15:06:16.643Z,101235.84
2022-12-17T15:11:16.089Z,101278.28
2022-12-17T15:16:18.971Z,101291.09
2022-12-17T15:21:26.649Z,101236.69
2022-12-17T15:26:41.030Z,101112.75
2022-12-17T15:31:58.002Z,101303.81
2022-12-17T15:36:51.595Z,101202.16
2022-12-17T15:42:03.740Z,101299.66
2022-12-17T15:47:05.598Z,101183.69
2022-12-17T15:52:00.140Z,101363.56
2022-12-17T15:56:56.388Z,101265.91
2022-12-17T16:01:51.049Z,101358.41
2022-12-17T16:06:44.651Z,101397.09
2022-12-17T16:11:37.825Z,101289.25
2022-12-17T16:16:55.439Z,101418.78
2022-12-17T16:21:49.775Z,101223.84
2022-12-17T16:26:45.269Z,101434.75
2022-12-17T16:31:41.188Z,101255.19
2022-12-17T16:36:34.672Z,101474.81
2022-12-17T16:41:30.942Z,101467.84
2022-12-17T16:46:30.077Z,101478.13
2022-12-17T16:51:30.494Z,101443.94
2022-12-17T16:56:25.431Z,101491.66
2022-12-17T17:01:21.045Z,101402.25
2022-12-17T17:06:14.724Z,101513.69
2022-12-17T17:11:14.527Z,101425.22
2022-12-17T17:16:09.891Z,101411.91
2022-12-17T17:21:26.155Z,101502.28
2022-12-17T17:26:21.135Z,101458.03
2022-12-17T17:31:16.382Z,101499.53
2022-12-17T17:36:12.226Z,101521.56
2022-12-17T17:41:10.836Z,101536.03
2022-12-17T17:46:10.258Z,101570.84
2022-12-17T17:51:06.361Z,101572.72
2022-12-17T17:56:04.274Z,101467.53
2022-12-17T18:00:57.905Z,101386.50
2022-12-17T18:05:57.813Z,101587.56
2022-12-17T18:11:21.599Z,101368.03
2022-12-17T18:16:21.688Z,101598.38
2022-12-17T18:21:18.222Z,101467.41
2022-12-17T18:26:21.447Z,101598.75
2022-12-17T18:31:17.071Z,101404.38
2022-12-17T18:36:15.379Z,101571.00
2022-12-17T18:41:30.077Z,101595.56
2022-12-17T18:46:23.722Z,101608.56
2022-12-17T18:51:17.162Z,101459.69
2022-12-17T18:56:16.661Z,101589.66
2022-12-17T19:01:25.017Z,101621.75
2022-12-17T19:06:20.081Z,101526.78
2022-12-17T19:11:17.084Z,101458.09
2022-12-17T19:16:12.653Z,101660.03
2022-12-17T19:21:12.194Z,101666.13
2022-12-17T19:26:08.635Z,101536.66
2022-12-17T19:31:03.339Z,101647.03
2022-12-17T19:36:05.137Z,101529.03
2022-12-17T19:41:06.015Z,101677.66
2022-12-17T19:46:11.904Z,101488.31
2022-12-17T19:51:10.572Z,101695.84
2022-12-17T19:56:14.065Z,101664.03
2022-12-17T20:01:10.149Z,101704.78
2022-12-17T20:06:03.941Z,101728.28
2022-12-17T20:10:57.895Z,101746.47
2022-12-17T20:16:19.502Z,101731.31
2022-12-17T20:21:20.083Z,101645.53
2022-12-17T20:26:20.619Z,101630.59
2022-12-17T20:31:18.232Z,101761.31
2022-12-17T20:36:19.925Z,101738.88
2022-12-17T20:41:14.736Z,101760.31
2022-12-17T20:46:13.746Z,101680.63
2022-12-17T20:51:13.832Z,101726.78
2022-12-17T20:56:09.473Z,101752.44
2022-12-17T21:01:11.860Z,101607.41
2022-12-17T21:06:12.555Z,101779.59
2022-12-17T21:11:12.004Z,101779.25
2022-12-17T21:16:08.066Z,101816.84
2022-12-17T21:21:03.843Z,101773.50
2022-12-17T21:26:04.041Z,101681.13
2022-12-17T21:31:02.454Z,101679.16
2022-12-17T21:36:07.845Z,101796.88
2022-12-17T21:41:15.454Z,101819.03
2022-12-17T21:46:12.651Z,101857.47
2022-12-17T21:51:07.378Z,101863.66
2022-12-17T21:56:05.877Z,101732.59
2022-12-17T22:01:10.906Z,101866.16
2022-12-17T22:06:14.306Z,101852.91
2022-12-17T22:11:11.760Z,101820.00
2022-12-17T22:16:09.249Z,101800.09
2022-12-17T22:21:05.150Z,101723.66
2022-12-17T22:25:58.420Z,101898.13
2022-12-17T22:31:22.180Z,101784.38
2022-12-17T22:39:01.541Z,101839.78
2022-12-17T22:44:36.378Z,101883.25
2022-12-17T22:47:02.227Z,101814.25
2022-12-17T22:51:56.955Z,101729.03
2022-12-17T22:57:35.033Z,101882.16
2022-12-17T23:02:03.568Z,101862.25
2022-12-17T23:06:58.344Z,101824.56
2022-12-17T23:11:51.823Z,101849.78
2022-12-17T23:16:45.810Z,101769.97
2022-12-17T23:21:39.524Z,101982.34
2022-12-17T23:26:36.761Z,101961.78
2022-12-17T23:31:33.391Z,102002.88
2022-12-17T23:36:27.638Z,101932.81
2022-12-17T23:41:22.588Z,101843.22
2022-12-17T23:46:18.301Z,101994.19
2022-12-17T23:51:13.438Z,101961.31
2022-12-17T23:56:11.193Z,102013.94
